Time;durP1;ratioP1;P1;durP2;ratioP2;P2;SDS_P1;SDS_P2;PMS_P1;PMS_P2;Temp;Humidity;BMP_temperature;BMP_pressure;BME280_temperature;BME280_humidity;BME280_pressure;Samples;Min_cycle;Max_cycle;Signal;HPM_P1;HPM_P2
2021/10/19 00:01:23;;;;;;;10.70;4.13;;;;;;;9.57;100.00;101723.69;6299627;28;20052;-79
2021/10/19 00:04:24;;;;;;;10.82;4.80;;;;;;;9.55;100.00;101728.13;6299587;28;20045;-79
2021/10/19 00:07:26;;;;;;;10.25;4.43;;;;;;;9.59;100.00;101720.13;6299827;28;20401;-79
2021/10/19 00:10:28;;;;;;;12.25;5.38;;;;;;;9.60;100.00;101723.59;6293961;28;20064;-79
2021/10/19 00:13:29;;;;;;;12.02;4.70;;;;;;;9.60;100.00;101719.19;6274635;28;20447;-79
2021/10/19 00:16:32;;;;;;;10.60;4.70;;;;;;;9.66;100.00;101724.22;6274606;28;20053;-79
2021/10/19 00:19:34;;;;;;;11.02;4.75;;;;;;;9.69;100.00;101720.66;6275120;28;20041;-80
2021/10/19 00:22:35;;;;;;;10.40;4.15;;;;;;;9.66;100.00;101715.50;6274702;28;20511;-79
2021/10/19 00:25:37;;;;;;;12.80;5.28;;;;;;;9.69;100.00;101719.81;6274259;28;20056;-79
2021/10/19 00:28:39;;;;;;;14.18;4.93;;;;;;;9.70;100.00;101709.25;6274000;28;20053;-79
2021/10/19 00:31:41;;;;;;;14.43;5.03;;;;;;;9.69;100.00;101701.44;6275911;28;20041;-80
2021/10/19 00:34:43;;;;;;;13.43;5.60;;;;;;;9.73;100.00;101709.16;6274249;28;20060;-79
2021/10/19 00:37:44;;;;;;;12.18;5.30;;;;;;;9.72;100.00;101711.81;6274883;28;20491;-79
2021/10/19 00:40:45;;;;;;;9.85;4.05;;;;;;;9.74;100.00;101717.88;6274527;28;20053;-79
2021/10/19 00:43:47;;;;;;;9.05;4.00;;;;;;;9.77;100.00;101717.78;6274274;28;20045;-79
2021/10/19 00:46:50;;;;;;;14.82;5.15;;;;;;;9.76;100.00;101743.13;6274442;28;20052;-79
2021/10/19 00:49:51;;;;;;;16.15;5.50;;;;;;;9.78;100.00;101732.63;6273859;28;20053;-80
2021/10/19 00:52:56;;;;;;;10.98;4.65;;;;;;;9.76;100.00;101729.16;6274627;28;20056;-80
2021/10/19 00:55:58;;;;;;;12.85;5.10;;;;;;;9.74;100.00;101726.59;6274379;28;20051;-80
2021/10/19 00:58:59;;;;;;;12.40;5.18;;;;;;;9.74;100.00;101717.88;6274718;28;20044;-79
2021/10/19 01:02:02;;;;;;;12.68;4.43;;;;;;;9.73;100.00;101719.66;6276329;28;20499;-80
2021/10/19 01:05:04;;;;;;;7.45;3.75;;;;;;;9.75;100.00;101722.22;6299055;28;20052;-79
2021/10/19 01:08:05;;;;;;;13.73;5.30;;;;;;;9.72;100.00;101712.69;6299094;28;20053;-80
2021/10/19 01:11:08;;;;;;;11.98;5.07;;;;;;;9.75;100.00;101711.69;6298851;28;20040;-80
2021/10/19 01:14:09;;;;;;;13.40;4.68;;;;;;;9.74;100.00;101713.47;6298696;28;20052;-79
2021/10/19 01:17:12;;;;;;;8.35;4.38;;;;;;;9.74;100.00;101707.38;6299183;28;20049;-79
2021/10/19 01:20:20;;;;;;;14.57;4.97;;;;;;;9.73;100.00;101710.91;6299640;28;20045;-79
2021/10/19 01:23:21;;;;;;;13.20;5.20;;;;;;;9.73;100.00;101696.03;6297374;28;20044;-80
2021/10/19 01:26:23;;;;;;;11.55;5.35;;;;;;;9.73;100.00;101693.41;6299921;28;20052;-79
2021/10/19 01:29:25;;;;;;;15.23;5.78;;;;;;;9.71;100.00;101678.59;6299356;28;20049;-79
2021/10/19 01:32:26;;;;;;;9.70;5.20;;;;;;;9.72;100.00;101698.69;6299719;28;20411;-79
2021/10/19 01:35:33;;;;;;;11.75;4.38;;;;;;;9.71;100.00;101700.44;6299348;28;20052;-79
2021/10/19 01:38:38;;;;;;;10.13;4.20;;;;;;;9.71;100.00;101699.59;6299581;28;20059;-79
2021/10/19 01:41:41;;;;;;;10.57;4.80;;;;;;;9.72;100.00;101704.81;6299519;28;20455;-79
2021/10/19 01:44:42;;;;;;;10.35;4.72;;;;;;;9.73;100.00;101705.66;6295594;28;20052;-79
2021/10/19 01:47:44;;;;;;;16.80;5.18;;;;;;;9.72;100.00;101696.06;6296250;28;20057;-79
2021/10/19 01:50:48;;;;;;;12.30;4.63;;;;;;;9.71;100.00;101687.31;6295757;28;20158;-79
2021/10/19 01:53:49;;;;;;;13.20;5.55;;;;;;;9.71;100.00;101692.56;6305509;22;20053;-75
2021/10/19 01:56:50;;;;;;;14.00;5.60;;;;;;;9.70;100.00;101696.13;6319208;28;20048;-76
2021/10/19 01:59:52;;;;;;;9.80;4.40;;;;;;;9.71;100.00;101679.44;6325467;28;20652;-76
2021/10/19 02:02:53;;;;;;;11.93;5.78;;;;;;;9.72;100.00;101672.44;6312212;28;20048;-76
2021/10/19 02:05:56;;;;;;;15.48;5.72;;;;;;;9.72;100.00;101673.31;6300015;28;20055;-75
2021/10/19 02:08:57;;;;;;;10.85;5.00;;;;;;;9.73;100.00;101675.03;6300260;28;20060;-76
2021/10/19 02:11:59;;;;;;;12.70;5.85;;;;;;;9.72;100.00;101675.06;6299882;28;20059;-76
2021/10/19 02:15:00;;;;;;;11.75;5.38;;;;;;;9.74;100.00;101671.47;6299555;28;20415;-76
2021/10/19 02:18:03;;;;;;;11.93;5.38;;;;;;;9.76;100.00;101671.41;6299786;28;20056;-76
2021/10/19 02:21:06;;;;;;;9.57;4.70;;;;;;;9.77;100.00;101668.75;6300064;28;20049;-75
2021/10/19 02:24:07;;;;;;;9.65;4.65;;;;;;;9.80;100.00;101668.63;6308224;28;20047;-75
2021/10/19 02:27:09;;;;;;;11.02;5.32;;;;;;;9.80;100.00;101670.41;6325278;28;20048;-76
2021/10/19 02:30:12;;;;;;;11.15;5.05;;;;;;;9.84;100.00;101670.25;6324702;28;20055;-76
2021/10/19 02:33:13;;;;;;;11.50;5.25;;;;;;;9.85;100.00;101671.94;6324467;28;20051;-74
2021/10/19 02:36:16;;;;;;;13.45;5.20;;;;;;;9.90;100.00;101666.53;6324592;28;20056;-75
2021/10/19 02:39:17;;;;;;;10.77;5.15;;;;;;;9.94;100.00;101667.28;6324522;28;20578;-76
2021/10/19 02:42:19;;;;;;;11.07;3.45;;;;;;;9.96;100.00;101671.56;6324614;28;20059;-76
2021/10/19 02:45:20;;;;;;;11.65;5.45;;;;;;;9.99;100.00;101658.34;6324048;28;20055;-76
2021/10/19 02:48:22;;;;;;;10.10;5.22;;;;;;;10.03;100.00;101661.69;6324527;28;20055;-76
2021/10/19 02:51:25;;;;;;;9.13;4.22;;;;;;;10.05;100.00;101657.25;6324030;28;20063;-76
2021/10/19 02:54:26;;;;;;;12.10;5.72;;;;;;;10.07;100.00;101653.66;6323027;28;20055;-75
2021/10/19 02:57:29;;;;;;;11.50;4.97;;;;;;;10.08;100.00;101644.00;6323855;28;20509;-76
2021/10/19 03:00:30;;;;;;;17.05;5.57;;;;;;;10.11;100.00;101646.53;6324363;28;20055;-74
2021/10/19 03:03:31;;;;;;;11.00;5.47;;;;;;;10.12;100.00;101641.19;6323573;28;20048;-76
2021/10/19 03:06:34;;;;;;;12.80;5.13;;;;;;;10.15;100.00;101648.97;6323831;28;20052;-75
2021/10/19 03:09:36;;;;;;;14.25;4.40;;;;;;;10.17;100.00;101641.03;6323357;28;20044;-75
2021/10/19 03:12:38;;;;;;;10.77;6.07;;;;;;;10.18;100.00;101631.41;6323496;28;20051;-76
2021/10/19 03:15:39;;;;;;;12.45;5.72;;;;;;;10.20;100.00;101648.81;6323544;28;20052;-76
2021/10/19 03:18:40;;;;;;;9.88;5.47;;;;;;;10.23;100.00;101642.59;6323564;28;20052;-74
2021/10/19 03:21:43;;;;;;;11.48;5.30;;;;;;;10.24;100.00;101653.06;6323754;28;20055;-76
2021/10/19 03:24:44;;;;;;;13.68;6.03;;;;;;;10.27;100.00;101641.59;6317088;28;20047;-76
2021/10/19 03:27:46;;;;;;;14.20;6.05;;;;;;;10.29;100.00;101648.50;6298344;28;20045;-76
2021/10/19 03:30:47;;;;;;;14.57;6.07;;;;;;;10.29;100.00;101629.25;6298283;28;20425;-75
2021/10/19 03:33:49;;;;;;;12.38;6.65;;;;;;;10.31;100.00;101636.19;6297942;28;20051;-76
2021/10/19 03:36:51;;;;;;;11.02;5.25;;;;;;;10.32;100.00;101629.16;6298112;28;20049;-76
2021/10/19 03:39:53;;;;;;;10.73;4.55;;;;;;;10.33;100.00;101623.81;6298085;28;20052;-76
2021/10/19 03:42:54;;;;;;;8.50;4.30;;;;;;;10.35;100.00;101629.00;6297988;28;20048;-76
2021/10/19 03:45:56;;;;;;;10.43;4.65;;;;;;;10.37;100.00;101629.81;6297481;28;20052;-75
2021/10/19 03:48:57;;;;;;;15.05;5.93;;;;;;;10.36;100.00;101628.97;6297861;28;20052;-76
2021/10/19 03:52:00;;;;;;;10.80;4.75;;;;;;;10.38;100.00;101624.50;6297464;28;20052;-76
2021/10/19 03:55:01;;;;;;;10.77;5.40;;;;;;;10.39;100.00;101628.84;6298455;28;20048;-76
2021/10/19 03:58:02;;;;;;;15.68;5.85;;;;;;;10.40;100.00;101624.44;6297550;28;20077;-75
2021/10/19 04:01:04;;;;;;;11.77;5.65;;;;;;;10.42;100.00;101625.25;6297304;28;20420;-76
2021/10/19 04:04:05;;;;;;;13.80;4.97;;;;;;;10.44;100.00;101614.66;6296989;28;20059;-75
2021/10/19 04:07:08;;;;;;;12.50;4.60;;;;;;;10.46;100.00;101616.31;6297171;28;20046;-75
2021/10/19 04:10:09;;;;;;;11.05;5.50;;;;;;;10.47;100.00;101615.41;6297370;28;20052;-76
2021/10/19 04:13:10;;;;;;;10.45;4.20;;;;;;;10.50;100.00;101604.78;6296782;28;20045;-76
2021/10/19 04:16:13;;;;;;;12.88;5.32;;;;;;;10.52;100.00;101600.31;6297168;28;20052;-76
2021/10/19 04:19:14;;;;;;;14.85;6.05;;;;;;;10.50;100.00;101596.91;6306407;28;20055;-76
2021/10/19 04:22:17;;;;;;;12.95;5.70;;;;;;;10.55;100.00;101596.72;6321778;28;20044;-76
2021/10/19 04:25:18;;;;;;;12.25;5.93;;;;;;;10.57;100.00;101590.47;6321150;28;20431;-76
2021/10/19 04:28:20;;;;;;;12.88;5.45;;;;;;;10.59;100.00;101585.16;6322140;28;20055;-75
2021/10/19 04:31:21;;;;;;;13.18;5.13;;;;;;;10.61;100.00;101591.22;6321568;28;20047;-75
2021/10/19 04:34:22;;;;;;;10.15;4.65;;;;;;;10.63;100.00;101589.41;6321452;28;20418;-76
2021/10/19 04:37:25;;;;;;;15.38;5.25;;;;;;;10.63;100.00;101590.25;6321829;28;20044;-76
2021/10/19 04:40:26;;;;;;;13.25;6.03;;;;;;;10.63;100.00;101582.34;6321831;28;20052;-76
2021/10/19 04:43:28;;;;;;;9.30;4.70;;;;;;;10.63;100.00;101582.34;6321251;28;20040;-75
2021/10/19 04:46:29;;;;;;;9.48;4.45;;;;;;;10.64;100.00;101581.44;6321719;28;20051;-76
2021/10/19 04:49:30;;;;;;;11.15;4.70;;;;;;;10.64;100.00;101573.56;6321584;28;20441;-75
2021/10/19 04:52:33;;;;;;;12.73;5.18;;;;;;;10.63;100.00;101574.47;6321609;28;20048;-75
2021/10/19 04:55:35;;;;;;;8.65;4.65;;;;;;;10.64;100.00;101575.31;6319665;28;20048;-77
2021/10/19 04:58:36;;;;;;;9.93;5.00;;;;;;;10.64;100.00;101556.91;6321800;28;20055;-75
2021/10/19 05:01:37;;;;;;;9.45;5.32;;;;;;;10.64;100.00;101549.88;6321858;28;20040;-77
2021/10/19 05:04:38;;;;;;;10.38;5.13;;;;;;;10.66;100.00;101548.03;6321060;28;20048;-75
2021/10/19 05:07:41;;;;;;;10.27;4.70;;;;;;;10.67;100.00;101548.88;6321508;28;20059;-76
2021/10/19 05:10:43;;;;;;;8.10;4.50;;;;;;;10.67;100.00;101546.25;6321381;28;20044;-75
2021/10/19 05:13:45;;;;;;;13.77;5.53;;;;;;;10.71;100.00;101547.00;6320947;28;20051;-76
2021/10/19 05:16:46;;;;;;;8.43;4.15;;;;;;;10.68;100.00;101539.25;6321280;28;20525;-76
2021/10/19 05:19:47;;;;;;;10.05;4.82;;;;;;;10.66;100.00;101537.53;6321357;28;20502;-76
2021/10/19 05:22:50;;;;;;;12.60;4.57;;;;;;;10.66;100.00;101534.03;6321146;28;20048;-76
2021/10/19 05:25:52;;;;;;;10.80;4.57;;;;;;;10.64;100.00;101530.63;6308405;28;20059;-75
2021/10/19 05:28:53;;;;;;;8.55;4.53;;;;;;;10.61;100.00;101536.88;6295986;28;20059;-75
2021/10/19 05:31:54;;;;;;;8.07;4.03;;;;;;;10.60;100.00;101529.06;6296053;28;20057;-76
2021/10/19 05:34:56;;;;;;;11.95;4.38;;;;;;;10.58;100.00;101529.13;6300861;28;20052;-75
2021/10/19 05:37:58;;;;;;;13.05;5.05;;;;;;;10.60;100.00;101526.41;6300873;28;20420;-76
2021/10/19 05:41:00;;;;;;;8.70;4.38;;;;;;;10.59;100.00;101524.72;6300951;28;20052;-75
2021/10/19 05:44:01;;;;;;;8.30;4.40;;;;;;;10.62;100.00;101528.06;6300348;28;20052;-76
2021/10/19 05:47:03;;;;;;;9.98;4.85;;;;;;;10.64;100.00;101528.00;6300801;28;20052;-75
2021/10/19 05:50:05;;;;;;;8.32;4.72;;;;;;;10.63;100.00;101531.56;6300793;28;20048;-75
2021/10/19 05:53:07;;;;;;;11.60;4.25;;;;;;;10.61;100.00;101541.25;6300463;28;20491;-74
2021/10/19 05:56:09;;;;;;;15.35;5.15;;;;;;;10.56;100.00;101535.34;6301343;28;20052;-75
2021/10/19 05:59:10;;;;;;;9.20;4.22;;;;;;;10.50;100.00;101525.94;6300437;28;20515;-75
2021/10/19 06:02:11;;;;;;;9.23;4.20;;;;;;;10.46;100.00;101524.34;6300240;28;20044;-76
2021/10/19 06:05:13;;;;;;;9.43;4.30;;;;;;;10.43;100.00;101528.88;6307510;28;20513;-76
2021/10/19 06:08:15;;;;;;;13.32;4.35;;;;;;;10.40;100.00;101525.47;6325401;28;20056;-76
2021/10/19 06:11:17;;;;;;;12.02;3.83;;;;;;;10.41;100.00;101535.06;6316812;28;20067;-75
2021/10/19 06:14:18;;;;;;;10.65;4.55;;;;;;;10.38;100.00;101536.94;6312541;28;20059;-76
2021/10/19 06:17:19;;;;;;;11.70;5.13;;;;;;;10.36;100.00;101549.28;6321618;28;20059;-75
2021/10/19 06:20:21;;;;;;;11.05;4.97;;;;;;;10.37;100.00;101548.38;6321744;28;20425;-75
2021/10/19 06:23:24;;;;;;;9.23;4.55;;;;;;;10.36;100.00;101552.78;6325152;28;20055;-75
2021/10/19 06:26:25;;;;;;;9.68;4.45;;;;;;;10.38;100.00;101553.56;6313331;28;20049;-75
2021/10/19 06:29:29;;;;;;;11.20;4.57;;;;;;;10.40;100.00;101569.25;6320026;28;20051;-76
2021/10/19 06:32:30;;;;;;;7.68;4.57;;;;;;;10.44;100.00;101562.09;6324567;28;20422;-75
2021/10/19 06:35:31;;;;;;;12.20;4.80;;;;;;;10.48;100.00;101554.03;6324470;28;20048;-75
2021/10/19 06:38:34;;;;;;;8.32;3.83;;;;;;;10.55;100.00;101552.88;6324834;28;20052;-76
2021/10/19 06:41:35;;;;;;;8.45;4.13;;;;;;;10.62;100.00;101548.22;6324555;28;20051;-75
2021/10/19 06:44:37;;;;;;;7.57;3.90;;;;;;;10.69;100.00;101546.22;6322902;28;20052;-76
2021/10/19 06:47:39;;;;;;;6.63;3.50;;;;;;;10.75;100.00;101548.59;6320879;28;20056;-75
2021/10/19 06:50:40;;;;;;;8.50;4.20;;;;;;;10.80;100.00;101547.47;6309014;28;20055;-75
2021/10/19 06:53:43;;;;;;;10.90;4.43;;;;;;;10.86;100.00;101547.25;6310486;28;20438;-76
2021/10/19 06:56:44;;;;;;;12.63;4.43;;;;;;;10.91;100.00;101552.31;6309822;28;20044;-76
2021/10/19 06:59:45;;;;;;;7.28;4.57;;;;;;;10.95;100.00;101539.88;6309829;28;20051;-75
2021/10/19 07:02:47;;;;;;;12.27;4.80;;;;;;;10.97;100.00;101538.03;6308403;28;20049;-76
2021/10/19 07:05:48;;;;;;;11.85;5.15;;;;;;;11.03;100.00;101537.75;6309787;28;20048;-75
2021/10/19 07:08:53;;;;;;;8.43;4.47;;;;;;;11.07;100.00;101534.94;6298803;28;20051;-76
2021/10/19 07:11:54;;;;;;;10.68;5.25;;;;;;;11.12;100.00;101532.97;6298991;28;20515;-75
2021/10/19 07:14:56;;;;;;;11.98;4.90;;;;;;;11.17;100.00;101541.53;6298548;28;20625;-76
2021/10/19 07:17:57;;;;;;;8.93;4.28;;;;;;;11.24;100.00;101530.75;6298376;28;20051;-76
2021/10/19 07:20:58;;;;;;;9.75;4.22;;;;;;;11.28;100.00;101527.91;6298608;28;20048;-75
2021/10/19 07:24:01;;;;;;;11.70;5.70;;;;;;;11.33;100.00;101525.06;6298048;28;20040;-74
2021/10/19 07:27:02;;;;;;;12.25;4.80;;;;;;;11.40;100.00;101511.59;6298800;28;20052;-75
2021/10/19 07:30:05;;;;;;;8.82;4.35;;;;;;;11.46;100.00;101509.59;6298181;28;20483;-76
2021/10/19 07:33:06;;;;;;;9.02;4.53;;;;;;;11.48;100.00;101500.69;6297870;28;20397;-75
2021/10/19 07:36:08;;;;;;;10.10;5.05;;;;;;;11.54;100.00;101489.91;6297784;28;20496;-75
2021/10/19 07:39:10;;;;;;;14.02;4.93;;;;;;;11.57;100.00;101504.69;6298168;28;20053;-75
2021/10/19 07:42:12;;;;;;;12.48;4.53;;;;;;;11.60;100.00;101505.41;6298229;28;20052;-75
2021/10/19 07:45:15;;;;;;;10.65;4.80;;;;;;;11.62;100.00;101493.03;6297786;28;20438;-75
2021/10/19 07:48:16;;;;;;;8.57;4.32;;;;;;;11.67;100.00;101501.59;6298104;28;20051;-73
2021/10/19 07:51:17;;;;;;;14.20;4.53;;;;;;;11.71;100.00;101499.66;6297612;28;20052;-75
2021/10/19 07:54:20;;;;;;;7.95;4.70;;;;;;;11.73;100.00;101502.22;6297217;28;20123;-73
2021/10/19 07:57:21;;;;;;;11.82;4.88;;;;;;;11.75;100.00;101511.75;6298484;28;20052;-72
2021/10/19 08:00:25;;;;;;;9.63;4.97;;;;;;;11.80;100.00;101516.81;6297590;28;20166;-76
2021/10/19 08:03:26;;;;;;;10.20;4.97;;;;;;;11.84;100.00;101508.72;6301385;28;20043;-74
2021/10/19 08:06:27;;;;;;;9.57;4.70;;;;;;;11.89;100.00;101517.25;6318164;28;20044;-73
2021/10/19 08:09:30;;;;;;;8.48;4.25;;;;;;;11.92;100.00;101525.03;6322686;28;20768;-73
2021/10/19 08:12:31;;;;;;;7.35;4.18;;;;;;;11.97;100.00;101518.69;6322676;28;20047;-74
2021/10/19 08:15:34;;;;;;;9.82;4.78;;;;;;;12.01;100.00;101521.13;6321890;28;20434;-73
2021/10/19 08:18:35;;;;;;;8.82;3.83;;;;;;;12.03;100.00;101518.41;6322368;28;20055;-74
2021/10/19 08:21:37;;;;;;;8.70;4.93;;;;;;;12.09;100.00;101515.50;6322319;28;20081;-74
2021/10/19 08:24:39;;;;;;;10.70;4.93;;;;;;;12.12;100.00;101524.09;6321803;28;20048;-73
2021/10/19 08:27:43;;;;;;;6.18;3.55;;;;;;;12.15;100.00;101516.03;6320432;28;20047;-74
2021/10/19 08:30:44;;;;;;;7.50;4.30;;;;;;;12.24;100.00;101512.13;6322113;28;20501;-74
2021/10/19 08:33:46;;;;;;;8.10;4.22;;;;;;;12.32;100.00;101520.53;6321662;28;20075;-74
2021/10/19 08:36:48;;;;;;;10.00;4.65;;;;;;;12.42;100.00;101528.84;6321962;28;20051;-74
2021/10/19 08:39:50;;;;;;;8.27;4.13;;;;;;;12.47;100.00;101515.44;6321884;28;20044;-73
2021/10/19 08:42:52;;;;;;;5.60;3.28;;;;;;;12.52;100.00;101503.72;6321461;28;20118;-74
2021/10/19 08:45:55;;;;;;;7.60;3.65;;;;;;;12.60;100.00;101505.97;6321683;28;20051;-74
2021/10/19 08:48:56;;;;;;;6.65;3.45;;;;;;;12.63;100.00;101511.97;6321597;28;20052;-74
2021/10/19 08:51:57;;;;;;;9.13;3.85;;;;;;;12.76;100.00;101491.09;6321671;28;20055;-74
2021/10/19 08:55:00;;;;;;;9.50;4.13;;;;;;;12.84;100.00;101495.97;6321204;28;20044;-74
2021/10/19 08:58:03;;;;;;;7.32;3.90;;;;;;;12.92;100.00;101494.66;6314920;28;20047;-72
2021/10/19 09:01:05;;;;;;;5.80;3.75;;;;;;;13.03;100.00;101499.38;6321019;28;20459;-75
2021/10/19 09:04:08;;;;;;;10.13;3.92;;;;;;;13.04;100.00;101490.56;6321029;28;20051;-73
2021/10/19 09:07:10;;;;;;;7.43;3.72;;;;;;;13.09;100.00;101490.31;6311876;28;20048;-74
2021/10/19 09:10:17;;;;;;;6.15;3.40;;;;;;;13.24;100.00;101489.53;6317588;28;20047;-74
2021/10/19 09:13:19;;;;;;;7.22;3.50;;;;;;;13.28;100.00;101485.81;6318404;28;20055;-74
2021/10/19 09:16:35;;;;;;;8.52;3.78;;;;;;;13.28;100.00;101487.59;6321060;28;20097;-73
2021/10/19 09:19:39;;;;;;;6.80;3.63;;;;;;;13.25;100.00;101479.81;6321564;28;20069;-74
2021/10/19 09:22:52;;;;;;;5.22;3.13;;;;;;;13.33;100.00;101477.63;6321094;28;20044;-74
2021/10/19 09:25:57;;;;;;;9.02;3.35;;;;;;;13.33;100.00;101475.84;6321323;28;20059;-74
2021/10/19 09:28:59;;;;;;;12.38;4.63;;;;;;;13.37;100.00;101477.41;6299261;28;20506;-73
2021/10/19 09:32:03;;;;;;;5.35;3.15;;;;;;;13.35;100.00;101475.75;6296048;28;20048;-74
2021/10/19 09:35:05;;;;;;;6.82;3.25;;;;;;;13.36;100.00;101473.06;6295555;28;20407;-75
2021/10/19 09:38:10;;;;;;;7.68;3.70;;;;;;;13.31;100.00;101461.03;6318369;28;20135;-74
2021/10/19 09:41:13;;;;;;;7.28;4.00;;;;;;;13.28;100.00;101469.13;6320408;28;20048;-74
2021/10/19 09:44:16;;;;;;;6.43;2.97;;;;;;;13.26;100.00;101471.81;6320623;28;20423;-75
2021/10/19 09:47:17;;;;;;;7.80;3.05;;;;;;;13.33;100.00;101480.28;6320679;28;20089;-73
2021/10/19 09:50:19;;;;;;;5.85;3.05;;;;;;;13.31;100.00;101482.16;6320427;28;20044;-75
2021/10/19 09:53:24;;;;;;;5.03;2.72;;;;;;;13.32;100.00;101474.16;6320653;28;20048;-74
2021/10/19 09:56:26;;;;;;;6.38;3.75;;;;;;;13.36;100.00;101477.50;6321122;28;20086;-74
2021/10/19 09:59:29;;;;;;;6.32;3.10;;;;;;;13.40;100.00;101471.13;6319965;28;20055;-75
2021/10/19 10:02:30;;;;;;;5.43;3.05;;;;;;;13.42;100.00;101469.22;6320705;28;20414;-74
2021/10/19 10:05:32;;;;;;;4.90;2.75;;;;;;;13.42;100.00;101456.88;6320724;28;20056;-75
2021/10/19 10:08:34;;;;;;;7.55;3.05;;;;;;;13.53;100.00;101455.44;6320661;28;20651;-75
2021/10/19 10:11:39;;;;;;;5.20;3.22;;;;;;;13.58;100.00;101450.75;6320885;28;20513;-74
2021/10/19 10:14:42;;;;;;;5.22;2.78;;;;;;;13.58;100.00;101442.84;6320304;28;20044;-74
2021/10/19 10:17:49;;;;;;;6.38;3.67;;;;;;;13.65;100.00;101441.56;6320834;28;20044;-75
2021/10/19 10:20:51;;;;;;;6.35;2.95;;;;;;;13.66;100.00;101422.97;6324511;28;20051;-75
2021/10/19 10:24:00;;;;;;;5.75;3.45;;;;;;;13.75;100.00;101418.97;6325015;28;20515;-74
2021/10/19 10:27:06;;;;;;;;;;;;;;;13.75;100.00;101420.78;6324133;28;20048;-75
2021/10/19 10:30:19;;;;;;;5.25;2.70;;;;;;;13.74;100.00;101429.66;6299913;28;19920;-74
2021/10/19 10:33:32;;;;;;;4.95;2.83;;;;;;;13.77;100.00;101427.69;6299278;28;20577;-74
2021/10/19 10:36:38;;;;;;;6.10;3.05;;;;;;;13.71;100.00;101428.00;6299657;28;20482;-74
2021/10/19 10:39:45;;;;;;;6.72;2.67;;;;;;;13.73;100.00;101431.44;6299448;28;20098;-74
2021/10/19 10:42:48;;;;;;;4.38;2.70;;;;;;;13.71;100.00;101412.16;6299400;28;20048;-75
2021/10/19 10:46:02;;;;;;;5.80;2.90;;;;;;;13.78;100.00;101420.63;6299164;28;20056;-74
2021/10/19 10:49:07;;;;;;;4.22;2.63;;;;;;;13.77;100.00;101422.41;6299347;28;20048;-73
2021/10/19 10:52:16;;;;;;;8.68;3.10;;;;;;;13.78;100.00;101423.25;6299210;28;20106;-74
2021/10/19 10:55:17;;;;;;;4.90;2.50;;;;;;;13.76;100.00;101423.31;6298767;28;20052;-74
2021/10/19 10:58:27;;;;;;;4.50;2.35;;;;;;;13.77;100.00;101421.56;6305863;28;20079;-74
2021/10/19 11:01:31;;;;;;;6.03;2.58;;;;;;;13.84;100.00;101420.25;6305592;28;20045;-74
2021/10/19 11:04:32;;;;;;;4.75;2.75;;;;;;;13.84;100.00;101415.81;6298501;28;20048;-74
2021/10/19 11:07:36;;;;;;;5.55;2.60;;;;;;;13.84;100.00;101410.53;6299057;28;20057;-74
2021/10/19 11:10:37;;;;;;;4.82;2.10;;;;;;;13.83;100.00;101415.94;6298755;28;20041;-74
2021/10/19 11:13:54;;;;;;;4.07;1.98;;;;;;;13.80;100.00;101411.66;6298526;28;20048;-74
2021/10/19 11:16:57;;;;;;;5.18;2.60;;;;;;;13.89;100.00;101399.72;6298522;28;20053;-73
2021/10/19 11:19:59;;;;;;;5.90;3.08;;;;;;;13.90;100.00;101409.38;6298732;28;20048;-73
2021/10/19 11:23:02;;;;;;;5.07;2.80;;;;;;;13.87;100.00;101399.81;6298285;28;20044;-73
2021/10/19 11:26:04;;;;;;;4.90;2.53;;;;;;;13.89;100.00;101405.00;6298248;28;20139;-74
2021/10/19 11:29:06;;;;;;;7.72;2.97;;;;;;;13.94;100.00;101401.19;6317996;28;20048;-74
2021/10/19 11:32:14;;;;;;;3.45;2.10;;;;;;;13.94;100.00;101410.88;6322770;28;20047;-74
2021/10/19 11:35:15;;;;;;;5.30;2.50;;;;;;;13.94;100.00;101413.50;6323480;28;20040;-73
2021/10/19 11:38:17;;;;;;;5.60;2.83;;;;;;;13.94;100.00;101411.75;6322559;28;20072;-74
2021/10/19 11:41:21;;;;;;;5.70;2.65;;;;;;;13.88;100.00;101412.06;6315982;28;20435;-73
2021/10/19 11:44:29;;;;;;;5.82;2.67;;;;;;;13.89;100.00;101408.50;6322918;28;20184;-73
2021/10/19 11:47:30;;;;;;;4.28;2.80;;;;;;;13.86;100.00;101397.25;6321226;28;20067;-73
2021/10/19 11:50:35;;;;;;;7.97;2.83;;;;;;;13.83;100.00;101395.63;6319764;28;20058;-74
2021/10/19 11:53:36;;;;;;;4.05;2.85;;;;;;;13.81;100.00;101391.41;6321958;28;20048;-74
2021/10/19 11:56:38;;;;;;;4.57;2.85;;;;;;;13.80;100.00;101387.03;6322968;28;20055;-74
2021/10/19 11:59:42;;;;;;;3.08;2.17;;;;;;;13.83;100.00;101368.38;6321281;28;20052;-74
2021/10/19 12:02:54;;;;;;;6.18;3.53;;;;;;;13.78;100.00;101366.00;6322490;28;20575;-75
2021/10/19 12:05:55;;;;;;;4.50;2.65;;;;;;;13.76;100.00;101353.78;6322676;28;20052;-74
2021/10/19 12:08:59;;;;;;;5.57;3.40;;;;;;;13.77;100.00;101355.53;6322429;28;20048;-74
2021/10/19 12:12:01;;;;;;;5.45;2.72;;;;;;;13.70;100.00;101337.34;6322335;28;20201;-74
2021/10/19 12:15:05;;;;;;;7.63;2.40;;;;;;;13.71;100.00;101340.84;6321884;28;20514;-73
2021/10/19 12:18:08;;;;;;;3.55;2.05;;;;;;;13.77;100.00;101329.09;6322449;28;20055;-74
2021/10/19 12:21:10;;;;;;;6.63;3.05;;;;;;;13.75;100.00;101337.09;6322267;28;20138;-74
2021/10/19 12:24:12;;;;;;;3.65;2.33;;;;;;;13.79;100.00;101335.97;6322100;28;20055;-74
2021/10/19 12:27:16;;;;;;;4.25;2.35;;;;;;;13.79;100.00;101335.97;6322212;28;20055;-74
2021/10/19 12:30:19;;;;;;;3.53;2.20;;;;;;;13.77;100.00;101335.22;6297997;28;20052;-74
2021/10/19 12:33:24;;;;;;;6.90;2.38;;;;;;;13.80;100.00;101331.53;6296789;28;20080;-74
2021/10/19 12:36:28;;;;;;;4.05;2.55;;;;;;;13.78;100.00;101338.72;6296492;28;20059;-74
2021/10/19 12:39:31;;;;;;;4.90;2.30;;;;;;;13.78;100.00;101334.28;6296840;28;20393;-73
2021/10/19 12:42:32;;;;;;;2.95;2.05;;;;;;;13.84;100.00;101330.44;6295840;28;20044;-74
2021/10/19 12:45:35;;;;;;;3.58;2.30;;;;;;;13.83;100.00;101326.09;6296112;28;20423;-74
2021/10/19 12:48:39;;;;;;;4.15;2.22;;;;;;;13.83;100.00;101312.88;6296625;28;20044;-74
2021/10/19 12:51:40;;;;;;;3.15;2.20;;;;;;;13.85;100.00;101309.22;6296777;28;20051;-73
2021/10/19 12:54:42;;;;;;;4.32;2.15;;;;;;;13.87;100.00;101301.19;6296202;28;20056;-73
2021/10/19 12:57:43;;;;;;;3.20;2.03;;;;;;;13.92;100.00;101299.13;6296802;28;20173;-74
2021/10/19 13:00:46;;;;;;;3.85;2.30;;;;;;;13.97;100.00;101299.72;6320388;28;20055;-73
2021/10/19 13:03:47;;;;;;;3.50;2.28;;;;;;;14.02;100.00;101292.38;6321092;28;20048;-73
2021/10/19 13:06:49;;;;;;;3.30;1.80;;;;;;;14.07;100.00;101292.09;6321465;28;20047;-73
2021/10/19 13:09:50;;;;;;;2.55;2.08;;;;;;;14.05;100.00;101286.06;6321323;28;20048;-73
2021/10/19 13:12:52;;;;;;;3.83;1.73;;;;;;;14.09;100.00;101296.38;6321354;28;20055;-74
2021/10/19 13:15:56;;;;;;;2.92;1.98;;;;;;;14.14;100.00;101291.66;6320943;28;20415;-74
2021/10/19 13:18:57;;;;;;;2.75;1.83;;;;;;;14.17;100.00;101290.59;6321650;28;20048;-73
2021/10/19 13:21:58;;;;;;;3.25;1.83;;;;;;;14.17;100.00;101287.97;6321356;28;20047;-74
2021/10/19 13:25:00;;;;;;;3.63;1.60;;;;;;;14.14;100.00;101285.53;6321018;28;20055;-74
2021/10/19 13:28:01;;;;;;;1.90;1.52;;;;;;;14.25;100.00;101287.50;6321134;28;20066;-74
2021/10/19 13:31:04;;;;;;;1.60;1.30;;;;;;;14.21;100.00;101282.41;6320370;28;20051;-75
2021/10/19 13:34:06;;;;;;;3.05;1.65;;;;;;;14.17;100.00;101272.97;6320725;28;20044;-76
2021/10/19 13:37:07;;;;;;;3.33;1.83;;;;;;;14.17;100.00;101275.63;6321033;28;20048;-75
2021/10/19 13:40:10;;;;;;;2.88;1.50;;;;;;;14.18;100.00;101273.81;6321215;28;20249;-75
2021/10/19 13:43:11;;;;;;;1.75;1.27;;;;;;;14.21;100.00;101269.19;6320908;28;20113;-74
2021/10/19 13:46:14;;;;;;;1.70;1.35;;;;;;;14.23;100.00;101269.09;6320880;28;20052;-75
2021/10/19 13:49:15;;;;;;;5.05;1.35;;;;;;;14.24;100.00;101267.31;6321142;28;20055;-75
2021/10/19 13:52:17;;;;;;;2.67;1.67;;;;;;;14.32;100.00;101262.41;6321096;28;20052;-75
2021/10/19 13:55:18;;;;;;;2.55;1.25;;;;;;;14.30;100.00;101262.47;6324130;28;20399;-74